Time;durP1;ratioP1;P1;durP2;ratioP2;P2;SDS_P1;SDS_P2;PMS_P1;PMS_P2;Temp;Humidity;BMP_temperature;BMP_pressure;BME280_temperature;BME280_humidity;BME280_pressure;Samples;Min_cycle;Max_cycle;Signal;HPM_P1;HPM_P2
2023/07/14 00:00:21;;;;;;;22.67;7.80;;;;;;;-144.73;100.00;54448.75;5022936;28;20021;-73
2023/07/14 00:02:48;;;;;;;19.23;8.00;;;;;;;-144.73;100.00;54473.38;5020399;28;20036;-73
2023/07/14 00:05:18;;;;;;;17.92;7.93;;;;;;;-144.73;100.00;54454.91;5036095;28;20030;-73
2023/07/14 00:07:49;;;;;;;21.02;8.65;;;;;;;-144.73;100.00;54444.66;5015825;28;20036;-73
2023/07/14 00:10:31;;;;;;;21.58;7.93;;;;;;;-144.73;100.00;54444.66;5024348;28;20179;-73
2023/07/14 00:12:58;;;;;;;15.07;7.40;;;;;;;-144.73;100.00;54452.84;5017980;28;20025;-73
2023/07/14 00:15:24;;;;;;;23.63;8.00;;;;;;;-144.73;100.00;54432.31;5010343;28;20104;-73
2023/07/14 00:17:55;;;;;;;24.52;8.40;;;;;;;-144.73;100.00;54452.84;5035701;28;20179;-73
2023/07/14 00:20:27;;;;;;;13.27;7.50;;;;;;;-144.73;100.00;54444.66;5024890;28;20025;-74
2023/07/14 00:22:54;;;;;;;16.10;6.70;;;;;;;-144.73;100.00;54473.38;5044406;28;20414;-74
2023/07/14 00:25:22;;;;;;;17.27;7.47;;;;;;;-144.73;100.00;54465.16;5025284;28;20422;-73
2023/07/14 00:27:49;;;;;;;13.75;6.50;;;;;;;-144.73;100.00;54415.91;5031890;28;20037;-73
2023/07/14 00:30:25;;;;;;;13.52;6.93;;;;;;;-144.73;100.00;54444.66;5027639;28;20029;-73
2023/07/14 00:32:54;;;;;;;19.88;7.15;;;;;;;-144.73;100.00;54440.53;5051490;28;20098;-73
2023/07/14 00:35:28;;;;;;;18.33;7.22;;;;;;;-144.73;100.00;54436.44;5033533;28;20031;-74
2023/07/14 00:37:56;;;;;;;18.40;6.50;;;;;;;-144.73;100.00;54473.38;5022427;28;20029;-73
2023/07/14 00:40:29;;;;;;;15.90;7.10;;;;;;;-144.73;100.00;54420.00;5016428;28;20494;-73
2023/07/14 00:42:58;;;;;;;19.45;7.55;;;;;;;-144.73;100.00;54417.97;5029899;28;20032;-73
2023/07/14 00:45:26;;;;;;;16.25;7.57;;;;;;;-144.73;100.00;54483.66;5021702;28;20021;-73
2023/07/14 00:48:03;;;;;;;18.20;7.63;;;;;;;-144.73;100.00;54456.97;5049482;28;20036;-73
2023/07/14 00:50:34;;;;;;;14.98;6.97;;;;;;;-144.73;100.00;54452.84;5016546;28;20029;-73
2023/07/14 00:53:04;;;;;;;15.85;7.78;;;;;;;-144.73;100.00;54440.53;5052928;28;20028;-74
2023/07/14 00:55:38;;;;;;;16.77;6.40;;;;;;;-144.73;100.00;54498.00;5020607;28;20035;-73
2023/07/14 00:58:12;;;;;;;14.10;7.25;;;;;;;-144.73;100.00;54452.84;5038355;28;20033;-72
2023/07/14 01:00:37;;;;;;;12.32;6.05;;;;;;;-144.73;100.00;54438.50;5046581;28;20028;-72
2023/07/14 01:03:06;;;;;;;14.45;6.40;;;;;;;-144.73;100.00;54489.81;5046756;28;20029;-72
2023/07/14 01:05:32;;;;;;;9.20;5.78;;;;;;;-144.73;100.00;54452.84;5047168;28;20082;-72
2023/07/14 01:07:58;;;;;;;15.50;6.35;;;;;;;-144.73;100.00;54428.22;5039185;28;20022;-73
2023/07/14 01:10:27;;;;;;;10.23;5.80;;;;;;;-144.73;100.00;54461.06;5038440;28;20912;-72
2023/07/14 01:13:04;;;;;;;10.57;5.72;;;;;;;-144.73;100.00;54452.84;5053219;28;20493;-72
2023/07/14 01:15:30;;;;;;;11.63;5.60;;;;;;;-144.73;100.00;54444.66;5034402;28;20025;-72
2023/07/14 01:17:59;;;;;;;8.98;4.60;;;;;;;-144.73;100.00;54448.75;5005206;28;20041;-72
2023/07/14 01:20:24;;;;;;;14.90;5.82;;;;;;;-144.73;100.00;54448.75;5015423;28;20026;-72
2023/07/14 01:23:16;;;;;;;8.98;4.78;;;;;;;-144.73;100.00;54440.53;5035975;28;20037;-72
2023/07/14 01:25:49;;;;;;;9.15;4.90;;;;;;;-144.73;100.00;54473.38;5036638;28;20075;-72
2023/07/14 01:28:15;;;;;;;15.50;5.65;;;;;;;-144.73;100.00;54461.06;5052263;28;20040;-72
2023/07/14 01:30:41;;;;;;;15.25;6.43;;;;;;;-144.73;100.00;54469.28;5057847;28;20037;-72
2023/07/14 01:33:15;;;;;;;19.85;6.28;;;;;;;-144.73;100.00;54475.44;5047250;28;20075;-72
2023/07/14 01:35:47;;;;;;;10.07;4.90;;;;;;;-144.73;100.00;54467.22;5040629;28;20054;-72
2023/07/14 01:38:13;;;;;;;10.40;5.63;;;;;;;-144.73;100.00;54459.00;5029610;28;20074;-72
2023/07/14 01:40:40;;;;;;;14.95;5.63;;;;;;;-144.73;100.00;54469.28;5049801;28;20024;-73
2023/07/14 01:43:08;;;;;;;9.40;5.30;;;;;;;-144.73;100.00;54448.75;5030404;28;20037;-73
2023/07/14 01:45:44;;;;;;;18.00;6.15;;;;;;;-144.73;100.00;54518.53;5045286;28;20099;-72
2023/07/14 01:48:12;;;;;;;15.15;6.78;;;;;;;-144.73;100.00;54452.84;5023425;28;20025;-73
2023/07/14 01:50:44;;;;;;;14.10;6.75;;;;;;;-144.73;100.00;54471.31;5046352;28;20029;-73
2023/07/14 01:53:19;;;;;;;12.30;7.18;;;;;;;-144.73;100.00;54463.13;5029232;28;20071;-73
2023/07/14 01:55:46;;;;;;;14.75;8.15;;;;;;;-144.73;100.00;54444.66;5037894;28;20068;-73
2023/07/14 01:58:18;;;;;;;13.73;7.72;;;;;;;-144.73;100.00;54463.13;5017960;28;20030;-73
2023/07/14 02:00:47;;;;;;;9.48;5.97;;;;;;;-144.73;100.00;54514.44;5043140;28;20022;-73
2023/07/14 02:03:17;;;;;;;16.10;7.10;;;;;;;-144.73;100.00;54493.91;5037606;28;20108;-73
2023/07/14 02:05:42;;;;;;;10.35;6.47;;;;;;;-144.73;100.00;54493.91;5028717;28;20024;-73
2023/07/14 02:08:14;;;;;;;17.08;6.55;;;;;;;-144.73;100.00;54473.38;5028248;28;20026;-73
2023/07/14 02:10:39;;;;;;;11.68;6.63;;;;;;;-144.73;100.00;54452.84;5023500;28;20025;-73
2023/07/14 02:13:05;;;;;;;10.68;6.38;;;;;;;-144.73;100.00;54510.31;5024334;28;20033;-73
2023/07/14 02:15:33;;;;;;;16.23;6.70;;;;;;;-144.73;100.00;54461.06;5026695;28;20030;-73
2023/07/14 02:18:00;;;;;;;12.23;6.93;;;;;;;-144.73;100.00;54493.91;5045152;28;20025;-73
2023/07/14 02:20:35;;;;;;;14.77;6.88;;;;;;;-144.73;100.00;54434.38;5049055;28;20024;-73
2023/07/14 02:23:03;;;;;;;12.45;6.65;;;;;;;-144.73;100.00;54448.75;5048700;28;20068;-73
2023/07/14 02:25:35;;;;;;;10.88;6.63;;;;;;;-144.73;100.00;54485.69;5048346;28;20095;-73
2023/07/14 02:28:00;;;;;;;15.73;7.35;;;;;;;-144.73;100.00;54491.84;5032960;28;20029;-73
2023/07/14 02:30:28;;;;;;;13.00;6.90;;;;;;;-144.73;100.00;54467.22;5030867;28;20037;-73
2023/07/14 02:33:00;;;;;;;17.50;7.63;;;;;;;-144.73;100.00;54456.97;5011344;28;20037;-73
2023/07/14 02:36:06;;;;;;;13.60;7.68;;;;;;;-144.73;100.00;54456.97;5037706;28;20037;-73
2023/07/14 02:38:31;;;;;;;14.57;7.28;;;;;;;-144.73;100.00;54461.06;5036104;28;20517;-73
2023/07/14 02:41:05;;;;;;;14.65;8.50;;;;;;;-144.73;100.00;54448.75;5059505;28;20020;-72
2023/07/14 02:43:31;;;;;;;17.25;7.65;;;;;;;-144.73;100.00;54452.84;5041206;28;20044;-72
2023/07/14 02:46:00;;;;;;;18.52;8.80;;;;;;;-144.73;100.00;54469.28;5027192;28;20013;-72
2023/07/14 02:48:48;;;;;;;14.30;8.48;;;;;;;-144.73;100.00;54469.28;5034894;28;20080;-72
2023/07/14 02:51:14;;;;;;;16.13;8.48;;;;;;;-144.73;100.00;54465.16;5050087;28;20094;-72
2023/07/14 02:53:39;;;;;;;14.93;7.80;;;;;;;-144.73;100.00;54444.66;5047759;28;20037;-72
2023/07/14 02:56:06;;;;;;;13.23;7.82;;;;;;;-144.73;100.00;54489.81;5035151;28;20070;-72
2023/07/14 02:58:33;;;;;;;11.05;7.30;;;;;;;-144.73;100.00;54465.16;5034438;28;20021;-72
2023/07/14 03:00:59;;;;;;;24.30;7.93;;;;;;;-144.73;100.00;54502.13;5047280;28;20059;-72
2023/07/14 03:03:24;;;;;;;18.73;8.38;;;;;;;-144.73;100.00;54489.81;5039679;28;20057;-72
2023/07/14 03:05:51;;;;;;;13.93;8.18;;;;;;;-144.73;100.00;54483.66;5039152;28;20041;-72
2023/07/14 03:08:17;;;;;;;12.93;7.85;;;;;;;-144.73;100.00;54450.81;5032611;28;20029;-72
2023/07/14 03:10:48;;;;;;;11.48;7.18;;;;;;;-144.73;100.00;54485.69;5039388;28;20033;-72
2023/07/14 03:13:16;;;;;;;15.57;8.23;;;;;;;-144.73;100.00;54473.38;5031692;28;20029;-73
2023/07/14 03:15:42;;;;;;;11.63;6.97;;;;;;;-144.73;100.00;54467.22;5041514;28;20021;-72
2023/07/14 03:18:07;;;;;;;19.00;9.27;;;;;;;-144.73;100.00;54485.69;5050728;28;20033;-73
2023/07/14 03:20:37;;;;;;;19.50;8.65;;;;;;;-144.73;100.00;54444.66;5031812;28;20035;-72
2023/07/14 03:23:03;;;;;;;19.25;9.55;;;;;;;-144.73;100.00;54489.81;5057343;28;20032;-72
2023/07/14 03:25:28;;;;;;;15.73;9.55;;;;;;;-144.73;100.00;54489.81;5034301;28;20025;-73
2023/07/14 03:27:53;;;;;;;14.82;8.35;;;;;;;-144.73;100.00;54473.38;5046248;28;20088;-72
2023/07/14 03:30:19;;;;;;;17.25;8.80;;;;;;;-144.73;100.00;54461.06;5022638;28;20036;-72
2023/07/14 03:32:44;;;;;;;13.80;8.07;;;;;;;-144.73;100.00;54477.47;5034444;28;20026;-72
2023/07/14 03:35:10;;;;;;;17.27;9.52;;;;;;;-144.73;100.00;54481.59;5044581;28;20026;-72
2023/07/14 03:37:35;;;;;;;14.65;9.70;;;;;;;-144.73;100.00;54495.97;5045589;28;20501;-72
2023/07/14 03:40:01;;;;;;;19.15;9.00;;;;;;;-144.73;100.00;54514.44;5041516;28;20017;-72
2023/07/14 03:42:26;;;;;;;17.00;9.00;;;;;;;-144.73;100.00;54467.22;5041618;28;20036;-72
2023/07/14 03:44:51;;;;;;;15.70;8.93;;;;;;;-144.73;100.00;54465.16;5031815;28;20036;-72
2023/07/14 03:47:17;;;;;;;16.15;9.52;;;;;;;-144.73;100.00;54440.53;5048932;28;20029;-72
2023/07/14 03:49:42;;;;;;;19.42;9.82;;;;;;;-144.73;100.00;54465.16;5029786;28;20036;-72
2023/07/14 03:52:08;;;;;;;18.88;9.93;;;;;;;-144.73;100.00;54475.44;5044978;28;20060;-72
2023/07/14 03:54:34;;;;;;;24.40;9.18;;;;;;;-144.73;100.00;54489.81;5014229;28;20041;-72
2023/07/14 03:56:59;;;;;;;15.07;8.75;;;;;;;-144.73;100.00;54465.16;5048941;28;20025;-72
2023/07/14 03:59:26;;;;;;;19.63;9.88;;;;;;;-144.73;100.00;54500.06;5040775;28;20040;-72
2023/07/14 04:01:51;;;;;;;17.25;9.80;;;;;;;-144.73;100.00;54502.13;5038213;28;20119;-72
2023/07/14 04:04:19;;;;;;;16.33;9.98;;;;;;;-144.73;100.00;54454.91;5024185;28;20121;-72
2023/07/14 04:06:44;;;;;;;17.60;9.10;;;;;;;-144.73;100.00;54456.97;5030585;28;20025;-72
2023/07/14 04:09:10;;;;;;;16.40;9.30;;;;;;;-144.73;100.00;54485.69;5018999;28;20029;-72
2023/07/14 04:11:35;;;;;;;14.32;8.40;;;;;;;-144.73;100.00;54506.22;5042843;28;20041;-72
2023/07/14 04:14:06;;;;;;;21.35;9.35;;;;;;;-144.73;100.00;54485.69;5047246;28;20059;-72
2023/07/14 04:16:31;;;;;;;25.57;10.73;;;;;;;-144.73;100.00;54456.97;5016218;28;20087;-72
2023/07/14 04:18:57;;;;;;;19.55;9.60;;;;;;;-144.73;100.00;54461.06;5040481;28;20029;-72
2023/07/14 04:21:27;;;;;;;17.27;10.00;;;;;;;-144.73;100.00;54469.28;5023123;28;20029;-72
2023/07/14 04:23:53;;;;;;;15.30;9.73;;;;;;;-144.73;100.00;54463.13;5019603;28;20041;-72
2023/07/14 04:26:18;;;;;;;15.93;9.70;;;;;;;-144.73;100.00;54469.28;5020596;28;20094;-72
2023/07/14 04:28:44;;;;;;;11.95;7.88;;;;;;;-144.73;100.00;54456.97;5047373;28;20037;-72
2023/07/14 04:31:09;;;;;;;20.67;9.77;;;;;;;-144.73;100.00;54502.13;5017012;28;20107;-72
2023/07/14 04:33:34;;;;;;;21.67;10.85;;;;;;;-144.73;100.00;54493.91;5034872;28;20069;-73
2023/07/14 04:36:00;;;;;;;15.95;9.85;;;;;;;-144.73;100.00;54473.38;5020819;28;20112;-72
2023/07/14 04:38:25;;;;;;;16.88;9.52;;;;;;;-144.73;100.00;54481.59;5040776;28;20057;-72
2023/07/14 04:40:51;;;;;;;15.57;9.63;;;;;;;-144.73;100.00;54452.84;5043399;28;20028;-72
2023/07/14 04:43:18;;;;;;;23.50;9.65;;;;;;;-144.73;100.00;54469.28;5011467;28;20042;-72
2023/07/14 04:45:44;;;;;;;22.88;13.57;;;;;;;-144.73;100.00;54506.22;5034900;28;20040;-71
2023/07/14 04:48:13;;;;;;;24.10;9.57;;;;;;;-144.73;100.00;54463.13;5043378;28;20029;-71
2023/07/14 04:50:39;;;;;;;18.40;11.38;;;;;;;-144.73;100.00;54493.91;5048264;28;20028;-70
2023/07/14 04:53:06;;;;;;;17.35;9.10;;;;;;;-144.73;100.00;54465.16;5035000;28;20029;-71
2023/07/14 04:55:38;;;;;;;17.27;9.65;;;;;;;-144.73;100.00;54539.06;5014030;28;20018;-71
2023/07/14 04:58:04;;;;;;;13.88;8.80;;;;;;;-144.73;100.00;54506.22;5017878;28;20022;-71
2023/07/14 05:00:31;;;;;;;16.92;9.10;;;;;;;-144.73;100.00;54477.47;5011190;28;20028;-71
2023/07/14 05:02:57;;;;;;;18.08;10.02;;;;;;;-144.73;100.00;54469.28;5019126;28;20037;-71
2023/07/14 05:05:24;;;;;;;14.57;9.50;;;;;;;-144.73;100.00;54456.97;5036677;28;20021;-71
2023/07/14 05:07:50;;;;;;;19.13;10.30;;;;;;;-144.73;100.00;54477.47;5027840;28;20030;-72
2023/07/14 05:10:17;;;;;;;24.25;9.48;;;;;;;-144.73;100.00;54489.81;5043976;28;20100;-72
2023/07/14 05:12:42;;;;;;;20.67;9.43;;;;;;;-144.73;100.00;54518.53;5027148;28;20026;-72
2023/07/14 05:15:10;;;;;;;20.05;9.25;;;;;;;-144.73;100.00;54444.66;5017371;28;20038;-72
2023/07/14 05:17:37;;;;;;;19.98;9.52;;;;;;;-144.73;100.00;54452.84;5005342;28;20026;-72
2023/07/14 05:20:06;;;;;;;14.65;8.38;;;;;;;-144.73;100.00;54465.16;5016969;28;20480;-73
2023/07/14 05:22:32;;;;;;;25.05;11.00;;;;;;;-144.73;100.00;54452.84;5044699;28;20371;-72
2023/07/14 05:24:57;;;;;;;20.48;9.18;;;;;;;-144.73;100.00;54510.31;5022521;28;20104;-72
2023/07/14 05:27:23;;;;;;;12.23;8.68;;;;;;;-144.73;100.00;54481.59;5046972;28;20103;-72
2023/07/14 05:29:49;;;;;;;24.13;8.32;;;;;;;-144.73;100.00;54518.53;5014369;28;20037;-72
2023/07/14 05:32:16;;;;;;;17.73;8.57;;;;;;;-144.73;100.00;54485.69;5035944;28;20096;-72
2023/07/14 05:34:41;;;;;;;18.65;9.15;;;;;;;-144.73;100.00;54407.69;5028059;28;20029;-72
2023/07/14 05:37:07;;;;;;;21.00;7.72;;;;;;;-144.73;100.00;54452.84;5038658;28;20029;-72
2023/07/14 05:39:33;;;;;;;13.50;9.13;;;;;;;-144.73;100.00;54469.28;5051505;28;20023;-72
2023/07/14 05:41:59;;;;;;;14.80;9.07;;;;;;;-144.73;100.00;54446.69;5031064;28;20103;-72
2023/07/14 05:44:24;;;;;;;18.45;8.75;;;;;;;-144.73;100.00;54477.47;5034912;28;20039;-72
2023/07/14 05:46:50;;;;;;;22.08;9.13;;;;;;;-144.73;100.00;54522.63;5017898;28;20031;-72
2023/07/14 05:49:16;;;;;;;20.00;8.35;;;;;;;-144.73;100.00;54502.13;5036299;28;20029;-72
2023/07/14 05:51:41;;;;;;;14.82;7.07;;;;;;;-144.73;100.00;54477.47;5026733;28;20055;-72
2023/07/14 05:54:07;;;;;;;20.33;7.85;;;;;;;-144.73;100.00;54485.69;5034984;28;20095;-72
2023/07/14 05:56:34;;;;;;;20.05;9.13;;;;;;;-144.73;100.00;54473.38;5040659;28;20112;-72
2023/07/14 05:58:59;;;;;;;20.23;8.50;;;;;;;-144.73;100.00;54479.53;5017661;28;20036;-72
2023/07/14 06:01:24;;;;;;;17.73;8.63;;;;;;;-144.73;100.00;54481.59;5042633;28;20017;-72
2023/07/14 06:03:50;;;;;;;16.42;8.68;;;;;;;-144.73;100.00;54506.22;5041093;28;20060;-72
2023/07/14 06:06:15;;;;;;;18.33;8.80;;;;;;;-144.73;100.00;54456.97;5047889;28;20072;-72
2023/07/14 06:08:42;;;;;;;19.02;9.20;;;;;;;-144.73;100.00;54465.16;5022040;28;20034;-72
2023/07/14 06:11:07;;;;;;;20.77;8.98;;;;;;;-144.73;100.00;54491.84;5047268;28;20036;-72
2023/07/14 06:13:33;;;;;;;13.35;8.35;;;;;;;-144.73;100.00;54502.13;5039483;28;20030;-72
2023/07/14 06:15:59;;;;;;;20.58;8.25;;;;;;;-144.73;100.00;54432.31;5016177;28;20039;-72
2023/07/14 06:18:25;;;;;;;23.90;10.70;;;;;;;-144.73;100.00;54461.06;5035991;28;20029;-73
2023/07/14 06:20:50;;;;;;;26.70;9.75;;;;;;;-144.73;100.00;54502.13;5025418;28;20036;-73
2023/07/14 06:23:16;;;;;;;15.65;8.88;;;;;;;-144.73;100.00;54461.06;5036917;28;20025;-73
2023/07/14 06:25:42;;;;;;;22.55;9.00;;;;;;;-144.73;100.00;54506.22;5016315;28;20017;-73
2023/07/14 06:28:07;;;;;;;18.30;8.43;;;;;;;-144.73;100.00;54473.38;5025328;28;20041;-73
2023/07/14 06:30:34;;;;;;;17.92;9.48;;;;;;;-144.73;100.00;54481.59;5020732;28;20025;-73
2023/07/14 06:33:01;;;;;;;16.92;9.02;;;;;;;-144.73;100.00;54481.59;5030080;28;20033;-74
2023/07/14 06:35:27;;;;;;;19.80;9.30;;;;;;;-144.73;100.00;54481.59;5049831;28;20190;-73
2023/07/14 06:37:55;;;;;;;21.75;9.85;;;;;;;-144.73;100.00;54440.53;5042852;28;20053;-74
2023/07/14 06:40:21;;;;;;;21.83;9.43;;;;;;;-144.73;100.00;54452.84;5014866;28;20021;-73
2023/07/14 06:42:46;;;;;;;20.02;8.45;;;;;;;-144.73;100.00;54463.13;5020853;28;20090;-74
2023/07/14 06:45:12;;;;;;;21.27;9.88;;;;;;;-144.73;100.00;54440.53;5026098;28;20028;-73
2023/07/14 06:47:38;;;;;;;12.95;8.82;;;;;;;-144.73;100.00;54428.22;5040101;28;20090;-73
2023/07/14 06:50:04;;;;;;;19.40;10.20;;;;;;;-144.73;100.00;54473.38;5028814;28;20086;-73
2023/07/14 06:52:30;;;;;;;24.73;10.75;;;;;;;-144.73;100.00;54461.06;5035159;28;20072;-73
2023/07/14 06:54:57;;;;;;;23.52;11.43;;;;;;;-144.73;100.00;54444.66;5027163;28;20043;-73
2023/07/14 06:57:23;;;;;;;20.60;10.90;;;;;;;-144.73;100.00;54452.84;5012730;28;20030;-74
2023/07/14 06:59:48;;;;;;;22.67;10.93;;;;;;;-144.73;100.00;54452.84;5030537;28;20028;-73
2023/07/14 07:02:14;;;;;;;14.55;9.07;;;;;;;-144.73;100.00;54440.53;5038047;28;20402;-72
2023/07/14 07:04:40;;;;;;;17.58;8.85;;;;;;;-144.73;100.00;54465.16;5032643;28;20017;-72
2023/07/14 07:07:06;;;;;;;15.25;8.77;;;;;;;-144.73;100.00;54454.91;5049541;28;20070;-72
2023/07/14 07:09:34;;;;;;;32.60;9.75;;;;;;;-144.73;100.00;54436.44;5046584;28;20042;-72
2023/07/14 07:11:59;;;;;;;22.83;9.05;;;;;;;-144.73;100.00;54514.44;5036466;28;20108;-72
2023/07/14 07:14:25;;;;;;;19.92;9.48;;;;;;;-144.73;100.00;54432.31;5025129;28;20105;-72
2023/07/14 07:16:50;;;;;;;14.73;8.70;;;;;;;-144.73;100.00;54465.16;5019322;28;20028;-72
2023/07/14 07:19:15;;;;;;;17.88;8.40;;;;;;;-144.73;100.00;54452.84;5030453;28;20034;-72
2023/07/14 07:21:41;;;;;;;13.85;7.65;;;;;;;-144.73;100.00;54461.06;5009903;28;20072;-72
2023/07/14 07:24:06;;;;;;;13.93;6.78;;;;;;;-144.73;100.00;54422.06;5023564;28;20075;-72
2023/07/14 07:26:32;;;;;;;19.38;6.82;;;;;;;-144.73;100.00;54477.47;5044432;28;20025;-72
2023/07/14 07:28:58;;;;;;;14.75;5.78;;;;;;;-144.73;100.00;54444.66;5024175;28;20053;-71
2023/07/14 07:31:23;;;;;;;15.15;6.85;;;;;;;-144.73;100.00;54428.22;5045575;28;20052;-72
2023/07/14 07:33:48;;;;;;;20.83;6.35;;;;;;;-144.73;100.00;54446.69;5015037;28;20045;-70
2023/07/14 07:36:15;;;;;;;14.73;5.60;;;;;;;-144.73;100.00;54407.69;5028010;28;20083;-71
2023/07/14 07:38:43;;;;;;;9.27;5.20;;;;;;;-144.73;100.00;54415.91;5013518;28;20024;-72
2023/07/14 07:41:09;;;;;;;19.50;4.90;;;;;;;-144.73;100.00;54411.81;5019987;28;20025;-72
2023/07/14 07:43:34;;;;;;;11.70;5.00;;;;;;;-144.73;100.00;54387.19;5034604;28;20567;-72
2023/07/14 07:46:00;;;;;;;9.95;4.00;;;;;;;-144.73;98.76;54415.91;5027644;28;20022;-72
2023/07/14 07:48:25;;;;;;;15.48;4.57;;;;;;;-144.73;91.94;54450.81;5032944;28;20051;-72
2023/07/14 07:50:51;;;;;;;9.27;3.90;;;;;;;-144.73;90.56;54389.22;5032765;28;20025;-72
2023/07/14 07:53:19;;;;;;;16.00;4.70;;;;;;;-144.73;87.97;54420.00;5035083;28;20036;-72
2023/07/14 07:55:52;;;;;;;12.10;4.43;;;;;;;-144.73;91.25;54428.22;5027273;28;20013;-72
2023/07/14 07:58:17;;;;;;;14.23;4.90;;;;;;;-144.73;89.08;54383.06;5035106;28;20110;-72
2023/07/14 08:00:43;;;;;;;18.33;5.03;;;;;;;-144.73;88.25;54420.00;5048929;28;20424;-72
2023/07/14 08:03:08;;;;;;;10.93;4.80;;;;;;;-144.73;91.93;54411.81;5037962;28;20040;-72
2023/07/14 08:05:35;;;;;;;11.88;4.13;;;;;;;-144.73;87.68;54409.75;5039557;28;20107;-72
2023/07/14 08:08:03;;;;;;;11.43;4.22;;;;;;;-144.73;87.15;54420.00;5023161;28;20044;-71
2023/07/14 08:10:31;;;;;;;12.02;4.90;;;;;;;-144.73;83.74;54395.38;5019038;28;20551;-71
2023/07/14 08:12:56;;;;;;;8.93;4.20;;;;;;;-144.73;84.50;54362.53;5052988;28;20033;-71
2023/07/14 08:15:27;;;;;;;10.80;4.53;;;;;;;-144.73;82.93;54428.22;5028631;28;20016;-72
2023/07/14 08:17:54;;;;;;;11.85;4.68;;;;;;;-144.73;81.99;54391.28;5023369;28;20551;-72
2023/07/14 08:20:22;;;;;;;18.00;5.15;;;;;;;-144.73;81.81;54383.06;5035142;28;20029;-72
2023/07/14 08:22:48;;;;;;;17.45;5.10;;;;;;;-144.73;79.63;54387.19;5026308;28;20025;-72
2023/07/14 08:25:13;;;;;;;7.43;3.28;;;;;;;-144.73;78.58;54399.50;5035898;28;20025;-72
2023/07/14 08:27:38;;;;;;;8.93;3.78;;;;;;;-144.73;75.80;54420.00;5044881;28;20038;-71
2023/07/14 08:30:06;;;;;;;12.57;3.70;;;;;;;-144.73;76.11;54391.28;5038911;28;20025;-72
2023/07/14 08:32:33;;;;;;;8.60;3.60;;;;;;;-144.73;73.85;54415.91;5024950;28;20063;-72
2023/07/14 08:34:58;;;;;;;11.02;3.30;;;;;;;-144.73;71.47;54383.06;5025114;28;20031;-72
2023/07/14 08:37:24;;;;;;;10.27;3.88;;;;;;;-144.73;74.17;54407.69;5014333;28;20084;-72
2023/07/14 08:39:49;;;;;;;6.70;3.28;;;;;;;-144.73;72.72;54364.59;5043874;28;20021;-73
2023/07/14 08:42:35;;;;;;;18.67;4.00;;;;;;;-144.73;72.21;54387.19;5024334;28;20064;-71
2023/07/14 08:45:14;;;;;;;10.20;3.63;;;;;;;-144.73;72.69;54391.28;5021528;28;20065;-71
2023/07/14 08:47:50;;;;;;;11.13;3.67;;;;;;;-144.73;73.06;54409.75;5020820;28;20029;-71
2023/07/14 08:50:23;;;;;;;12.23;3.58;;;;;;;-144.73;75.24;54407.69;5036844;28;20030;-72
2023/07/14 08:52:51;;;;;;;12.55;2.90;;;;;;;-144.73;71.73;54378.97;5024662;28;20032;-72
2023/07/14 08:55:26;;;;;;;9.10;3.42;;;;;;;-144.73;68.84;54387.19;5012102;28;20056;-72
2023/07/14 08:57:57;;;;;;;11.38;3.47;;;;;;;-144.73;67.25;54354.34;5028026;28;20029;-72
2023/07/14 09:00:28;;;;;;;6.40;2.95;;;;;;;-144.73;61.74;54387.19;5041882;28;20029;-72
2023/07/14 09:03:06;;;;;;;6.05;3.58;;;;;;;-144.73;64.78;54411.81;5038960;28;20024;-72
2023/07/14 09:05:35;;;;;;;9.20;3.60;;;;;;;-144.73;63.27;54358.44;5044834;28;20016;-72
2023/07/14 09:08:00;;;;;;;8.30;2.85;;;;;;;-144.73;62.33;54333.81;5029695;28;20030;-72
2023/07/14 09:10:49;;;;;;;12.35;3.58;;;;;;;-144.73;58.49;54378.97;5039384;28;20021;-72
2023/07/14 09:13:39;;;;;;;5.78;2.70;;;;;;;-144.73;60.87;54374.84;5050239;28;20037;-73
2023/07/14 09:16:08;;;;;;;9.35;3.25;;;;;;;-144.73;61.85;54358.44;5054109;28;20013;-73
2023/07/14 09:18:49;;;;;;;7.45;2.67;;;;;;;-144.73;58.24;54348.19;5042609;28;20048;-71
2023/07/14 09:21:24;;;;;;;9.32;2.85;;;;;;;-144.73;57.95;54370.75;5038630;28;20039;-71
2023/07/14 09:24:06;;;;;;;8.43;2.92;;;;;;;-144.73;61.06;54381.00;5030298;28;20043;-72
2023/07/14 09:26:39;;;;;;;8.73;2.45;;;;;;;-144.73;58.27;54366.66;5026658;28;20095;-72
2023/07/14 09:29:13;;;;;;;7.70;2.70;;;;;;;-144.73;57.00;54346.13;5057665;28;20091;-72
2023/07/14 09:32:02;;;;;;;8.60;3.00;;;;;;;-144.73;57.99;54391.28;5030893;28;20496;-72
2023/07/14 09:34:42;;;;;;;9.73;2.55;;;;;;;-144.73;57.28;54350.22;5022138;28;20040;-72
2023/07/14 09:37:18;;;;;;;5.30;2.60;;;;;;;-144.73;56.28;54378.97;5051354;28;20036;-72
2023/07/14 09:39:46;;;;;;;8.68;2.88;;;;;;;-144.73;55.51;54378.97;5021249;28;20432;-72
2023/07/14 09:42:22;;;;;;;12.02;4.10;;;;;;;-144.73;53.69;54335.88;5054606;28;20033;-73
2023/07/14 09:44:48;;;;;;;8.82;3.10;;;;;;;-144.73;53.97;54305.06;5023209;28;20025;-72
2023/07/14 09:47:14;;;;;;;8.30;2.95;;;;;;;-144.73;54.93;54374.84;5039756;28;20104;-72
2023/07/14 09:49:48;;;;;;;6.25;2.60;;;;;;;-144.73;56.57;54342.03;5047132;28;20032;-73
2023/07/14 09:52:20;;;;;;;10.25;2.95;;;;;;;-144.73;56.23;54309.19;5028913;28;20111;-72
2023/07/14 09:54:53;;;;;;;10.98;2.70;;;;;;;-144.73;53.53;54319.44;5025528;28;20025;-72
2023/07/14 09:57:34;;;;;;;8.95;2.90;;;;;;;-144.73;53.41;54342.03;5038768;28;20055;-72
2023/07/14 10:00:13;;;;;;;6.82;2.92;;;;;;;-144.73;53.09;54346.13;5045424;28;20069;-72
2023/07/14 10:02:39;;;;;;;4.47;2.65;;;;;;;-144.73;53.33;54370.75;5032289;28;20034;-72
2023/07/14 10:05:26;;;;;;;7.38;3.17;;;;;;;-144.73;57.10;54391.28;5046247;28;20078;-70
2023/07/14 10:07:51;;;;;;;9.05;3.13;;;;;;;-144.73;56.59;54360.50;5017389;28;20033;-71
2023/07/14 10:10:24;;;;;;;10.57;3.08;;;;;;;-144.73;60.71;54424.13;5043284;28;20039;-72
2023/07/14 10:12:50;;;;;;;6.13;2.83;;;;;;;-144.73;59.70;54350.22;5027821;28;20029;-72
2023/07/14 10:15:36;;;;;;;6.25;3.05;;;;;;;-144.73;57.56;54292.75;5031338;28;20028;-72
2023/07/14 10:18:12;;;;;;;7.32;3.03;;;;;;;-144.73;54.63;54354.34;5043787;28;20099;-73
2023/07/14 10:20:39;;;;;;;8.80;3.03;;;;;;;-144.73;53.09;54342.03;5031001;28;20032;-71
2023/07/14 10:23:15;;;;;;;9.85;3.05;;;;;;;-144.73;55.62;54383.06;5051178;28;20043;-71
2023/07/14 10:25:49;;;;;;;5.72;2.58;;;;;;;-144.73;54.64;54407.69;5040621;28;20035;-72
2023/07/14 10:28:22;;;;;;;7.35;2.60;;;;;;;-144.73;52.87;54354.34;5014111;28;20034;-72
2023/07/14 10:31:01;;;;;;;8.63;3.10;;;;;;;-144.73;53.70;54374.84;5039480;28;20133;-71
2023/07/14 10:33:54;;;;;;;6.97;2.78;;;;;;;-144.73;57.11;54381.00;5033475;28;20101;-71
2023/07/14 10:36:27;;;;;;;6.68;2.92;;;;;;;-144.73;58.19;54411.81;5006496;28;20026;-70
2023/07/14 10:38:59;;;;;;;5.93;2.70;;;;;;;-144.73;59.98;54362.53;5030293;28;20026;-71
2023/07/14 10:41:26;;;;;;;10.45;2.90;;;;;;;-144.73;59.77;54407.69;5018628;28;20021;-71
2023/07/14 10:44:03;;;;;;;5.22;3.15;;;;;;;-144.73;60.41;54428.22;5041561;28;20029;-70
2023/07/14 10:46:40;;;;;;;7.18;2.72;;;;;;;-144.73;58.27;54300.97;5018006;28;20031;-71
2023/07/14 10:49:15;;;;;;;7.07;2.58;;;;;;;-144.73;53.50;54337.91;5037983;28;20036;-71
2023/07/14 10:51:49;;;;;;;7.18;2.63;;;;;;;-144.73;52.78;54348.19;5034227;28;20546;-71
2023/07/14 10:54:23;;;;;;;5.28;2.47;;;;;;;-144.73;52.99;54346.13;5024321;28;20039;-70
2023/07/14 10:56:58;;;;;;;6.88;3.10;;;;;;;-144.73;51.02;54305.06;5031976;28;20028;-70
2023/07/14 10:59:32;;;;;;;6.38;2.65;;;;;;;-144.73;52.81;54395.38;5028679;28;20038;-70
2023/07/14 11:02:10;;;;;;;8.95;2.60;;;;;;;-144.73;55.48;54399.50;5034902;28;20052;-70
2023/07/14 11:04:42;;;;;;;5.90;3.20;;;;;;;-144.73;55.65;54362.53;5044573;28;20041;-71
2023/07/14 11:07:17;;;;;;;14.57;3.45;;;;;;;-144.73;55.79;54354.34;5049597;28;20029;-71
2023/07/14 11:09:43;;;;;;;12.00;2.75;;;;;;;-144.73;55.34;54366.66;5034677;28;20048;-70
2023/07/14 11:12:24;;;;;;;7.15;3.25;;;;;;;-144.73;55.72;54420.00;5031805;28;20067;-71